sensor_id;sensor_type;location;lat;lon;timestamp;temperature;humidity
15355;DHT22;7777;52.254;9.618;2023-08-21T00:00:05;21.10;99.90
15355;DHT22;7777;52.254;9.618;2023-08-21T00:02:32;21.00;99.90
15355;DHT22;7777;52.254;9.618;2023-08-21T00:04:57;21.00;99.90
15355;DHT22;7777;52.254;9.618;2023-08-21T00:07:23;20.90;99.90
15355;DHT22;7777;52.254;9.618;2023-08-21T00:09:49;20.90;99.90
15355;DHT22;7777;52.254;9.618;2023-08-21T00:12:16;20.90;99.90
15355;DHT22;7777;52.254;9.618;2023-08-21T00:14:41;20.80;99.90
15355;DHT22;7777;52.254;9.618;2023-08-21T00:17:07;20.80;99.90
15355;DHT22;7777;52.254;9.618;2023-08-21T00:19:33;20.70;99.90
15355;DHT22;7777;52.254;9.618;2023-08-21T00:22:00;20.70;99.90
15355;DHT22;7777;52.254;9.618;2023-08-21T00:24:25;20.70;99.90
15355;DHT22;7777;52.254;9.618;2023-08-21T00:26:51;20.60;99.90
15355;DHT22;7777;52.254;9.618;2023-08-21T00:29:17;20.60;99.90
15355;DHT22;7777;52.254;9.618;2023-08-21T00:31:43;20.50;99.90
15355;DHT22;7777;52.254;9.618;2023-08-21T00:34:08;20.50;99.90
15355;DHT22;7777;52.254;9.618;2023-08-21T00:36:34;20.40;99.90
15355;DHT22;7777;52.254;9.618;2023-08-21T00:39:00;20.40;99.90
15355;DHT22;7777;52.254;9.618;2023-08-21T00:41:25;20.40;99.90
15355;DHT22;7777;52.254;9.618;2023-08-21T00:43:51;20.40;99.90
15355;DHT22;7777;52.254;9.618;2023-08-21T00:46:17;20.30;99.90
15355;DHT22;7777;52.254;9.618;2023-08-21T00:48:43;20.30;99.90
15355;DHT22;7777;52.254;9.618;2023-08-21T00:51:10;20.20;99.90
15355;DHT22;7777;52.254;9.618;2023-08-21T00:53:37;20.20;99.90
15355;DHT22;7777;52.254;9.618;2023-08-21T00:56:03;20.20;99.90
15355;DHT22;7777;52.254;9.618;2023-08-21T00:58:29;20.10;99.90
15355;DHT22;7777;52.254;9.618;2023-08-21T01:00:55;20.10;99.90
15355;DHT22;7777;52.254;9.618;2023-08-21T01:03:21;20.10;99.90
15355;DHT22;7777;52.254;9.618;2023-08-21T01:05:47;20.10;99.90
15355;DHT22;7777;52.254;9.618;2023-08-21T01:11:22;20.00;99.90
15355;DHT22;7777;52.254;9.618;2023-08-21T01:14:01;19.90;99.90
15355;DHT22;7777;52.254;9.618;2023-08-21T01:16:33;19.90;99.90
15355;DHT22;7777;52.254;9.618;2023-08-21T01:19:00;19.80;99.90
15355;DHT22;7777;52.254;9.618;2023-08-21T01:21:27;19.80;99.90
15355;DHT22;7777;52.254;9.618;2023-08-21T01:23:53;19.80;99.90
15355;DHT22;7777;52.254;9.618;2023-08-21T01:26:18;19.80;99.90
15355;DHT22;7777;52.254;9.618;2023-08-21T01:28:44;19.70;99.90
15355;DHT22;7777;52.254;9.618;2023-08-21T01:31:15;19.70;99.90
15355;DHT22;7777;52.254;9.618;2023-08-21T01:33:54;19.70;99.90
15355;DHT22;7777;52.254;9.618;2023-08-21T01:36:23;19.70;99.90
15355;DHT22;7777;52.254;9.618;2023-08-21T01:38:49;19.60;99.90
15355;DHT22;7777;52.254;9.618;2023-08-21T01:41:15;19.60;99.90
15355;DHT22;7777;52.254;9.618;2023-08-21T01:43:41;19.60;99.90
15355;DHT22;7777;52.254;9.618;2023-08-21T01:46:07;19.60;99.90
15355;DHT22;7777;52.254;9.618;2023-08-21T01:48:32;19.50;99.90
15355;DHT22;7777;52.254;9.618;2023-08-21T01:51:01;19.50;99.90
15355;DHT22;7777;52.254;9.618;2023-08-21T01:53:27;19.50;99.90
15355;DHT22;7777;52.254;9.618;2023-08-21T01:55:53;19.50;99.90
15355;DHT22;7777;52.254;9.618;2023-08-21T01:58:19;19.40;99.90
15355;DHT22;7777;52.254;9.618;2023-08-21T02:00:48;19.40;99.90
15355;DHT22;7777;52.254;9.618;2023-08-21T02:03:14;19.30;99.90
15355;DHT22;7777;52.254;9.618;2023-08-21T02:05:40;19.40;99.90
15355;DHT22;7777;52.254;9.618;2023-08-21T02:08:12;19.30;99.90
15355;DHT22;7777;52.254;9.618;2023-08-21T02:10:50;19.30;99.90
15355;DHT22;7777;52.254;9.618;2023-08-21T02:13:16;19.30;99.90
15355;DHT22;7777;52.254;9.618;2023-08-21T02:15:41;19.20;99.90
15355;DHT22;7777;52.254;9.618;2023-08-21T02:18:07;19.20;99.90
15355;DHT22;7777;52.254;9.618;2023-08-21T02:20:33;19.20;99.90
15355;DHT22;7777;52.254;9.618;2023-08-21T02:22:58;19.20;99.90
15355;DHT22;7777;52.254;9.618;2023-08-21T02:25:24;19.20;99.90
15355;DHT22;7777;52.254;9.618;2023-08-21T02:27:50;19.10;99.90
15355;DHT22;7777;52.254;9.618;2023-08-21T02:30:16;19.10;99.90
15355;DHT22;7777;52.254;9.618;2023-08-21T02:32:41;19.10;99.90
15355;DHT22;7777;52.254;9.618;2023-08-21T02:35:08;19.10;99.90
15355;DHT22;7777;52.254;9.618;2023-08-21T02:37:34;19.10;99.90
15355;DHT22;7777;52.254;9.618;2023-08-21T02:40:05;19.00;99.90
15355;DHT22;7777;52.254;9.618;2023-08-21T02:42:33;19.00;99.90
15355;DHT22;7777;52.254;9.618;2023-08-21T02:44:59;19.00;99.90
15355;DHT22;7777;52.254;9.618;2023-08-21T02:47:24;19.00;99.90
15355;DHT22;7777;52.254;9.618;2023-08-21T02:49:50;19.00;99.90
15355;DHT22;7777;52.254;9.618;2023-08-21T02:52:17;18.90;99.90
15355;DHT22;7777;52.254;9.618;2023-08-21T02:54:43;18.90;99.90
15355;DHT22;7777;52.254;9.618;2023-08-21T02:57:09;18.90;99.90
15355;DHT22;7777;52.254;9.618;2023-08-21T02:59:35;18.90;99.90
15355;DHT22;7777;52.254;9.618;2023-08-21T03:02:00;18.90;99.90
15355;DHT22;7777;52.254;9.618;2023-08-21T03:04:26;18.80;99.90
15355;DHT22;7777;52.254;9.618;2023-08-21T03:06:52;18.80;99.90
15355;DHT22;7777;52.254;9.618;2023-08-21T03:09:17;18.80;99.90
15355;DHT22;7777;52.254;9.618;2023-08-21T03:11:43;18.80;99.90
15355;DHT22;7777;52.254;9.618;2023-08-21T03:14:09;18.80;99.90
15355;DHT22;7777;52.254;9.618;2023-08-21T03:16:34;18.80;99.90
15355;DHT22;7777;52.254;9.618;2023-08-21T03:19:00;18.70;99.90
15355;DHT22;7777;52.254;9.618;2023-08-21T03:21:27;18.70;99.90
15355;DHT22;7777;52.254;9.618;2023-08-21T03:23:57;18.70;99.90
15355;DHT22;7777;52.254;9.618;2023-08-21T03:26:25;18.70;99.90
15355;DHT22;7777;52.254;9.618;2023-08-21T03:28:51;18.70;99.90
15355;DHT22;7777;52.254;9.618;2023-08-21T03:31:17;18.70;99.90
15355;DHT22;7777;52.254;9.618;2023-08-21T03:33:42;18.70;99.90
15355;DHT22;7777;52.254;9.618;2023-08-21T03:36:08;18.60;99.90
15355;DHT22;7777;52.254;9.618;2023-08-21T03:38:34;18.60;99.90
15355;DHT22;7777;52.254;9.618;2023-08-21T03:41:01;18.60;99.90
15355;DHT22;7777;52.254;9.618;2023-08-21T03:43:27;18.60;99.90
15355;DHT22;7777;52.254;9.618;2023-08-21T03:45:53;18.60;99.90
15355;DHT22;7777;52.254;9.618;2023-08-21T03:48:18;18.60;99.90
15355;DHT22;7777;52.254;9.618;2023-08-21T03:50:44;18.60;99.90
15355;DHT22;7777;52.254;9.618;2023-08-21T03:53:10;18.60;99.90
15355;DHT22;7777;52.254;9.618;2023-08-21T03:55:36;18.60;99.90
15355;DHT22;7777;52.254;9.618;2023-08-21T03:58:01;18.60;99.90
15355;DHT22;7777;52.254;9.618;2023-08-21T04:00:27;18.60;99.90
15355;DHT22;7777;52.254;9.618;2023-08-21T04:02:53;18.60;99.90
15355;DHT22;7777;52.254;9.618;2023-08-21T04:05:19;18.60;99.90
15355;DHT22;7777;52.254;9.618;2023-08-21T04:07:44;18.60;99.90
15355;DHT22;7777;52.254;9.618;2023-08-21T04:10:10;18.60;99.90
15355;DHT22;7777;52.254;9.618;2023-08-21T04:12:36;18.60;99.90
15355;DHT22;7777;52.254;9.618;2023-08-21T04:15:01;18.60;99.90
15355;DHT22;7777;52.254;9.618;2023-08-21T04:17:27;18.60;99.90
15355;DHT22;7777;52.254;9.618;2023-08-21T04:19:53;18.60;99.90
15355;DHT22;7777;52.254;9.618;2023-08-21T04:22:20;18.60;99.90
15355;DHT22;7777;52.254;9.618;2023-08-21T04:24:46;18.60;99.90
15355;DHT22;7777;52.254;9.618;2023-08-21T04:27:11;18.60;99.90
15355;DHT22;7777;52.254;9.618;2023-08-21T04:29:38;18.60;99.90
15355;DHT22;7777;52.254;9.618;2023-08-21T04:32:05;18.60;99.90
15355;DHT22;7777;52.254;9.618;2023-08-21T04:34:32;18.60;99.90
15355;DHT22;7777;52.254;9.618;2023-08-21T04:36:58;18.60;99.90
15355;DHT22;7777;52.254;9.618;2023-08-21T04:39:24;18.60;99.90
15355;DHT22;7777;52.254;9.618;2023-08-21T04:41:49;18.60;99.90
15355;DHT22;7777;52.254;9.618;2023-08-21T04:44:15;18.60;99.90
15355;DHT22;7777;52.254;9.618;2023-08-21T04:46:41;18.60;99.90
15355;DHT22;7777;52.254;9.618;2023-08-21T04:49:07;18.60;99.90
15355;DHT22;7777;52.254;9.618;2023-08-21T04:51:32;18.60;99.90
15355;DHT22;7777;52.254;9.618;2023-08-21T04:53:58;18.60;99.90
15355;DHT22;7777;52.254;9.618;2023-08-21T04:56:25;18.70;99.90
15355;DHT22;7777;52.254;9.618;2023-08-21T04:58:52;18.60;99.90
15355;DHT22;7777;52.254;9.618;2023-08-21T05:01:18;18.70;99.90
15355;DHT22;7777;52.254;9.618;2023-08-21T05:03:43;18.70;99.90
15355;DHT22;7777;52.254;9.618;2023-08-21T05:06:09;18.70;99.90
15355;DHT22;7777;52.254;9.618;2023-08-21T05:08:35;18.70;99.90
15355;DHT22;7777;52.254;9.618;2023-08-21T05:11:01;18.80;99.90
15355;DHT22;7777;52.254;9.618;2023-08-21T05:13:27;18.80;99.90
15355;DHT22;7777;52.254;9.618;2023-08-21T05:15:54;18.70;99.90
15355;DHT22;7777;52.254;9.618;2023-08-21T05:18:22;18.80;99.90
15355;DHT22;7777;52.254;9.618;2023-08-21T05:20:49;18.80;99.90
15355;DHT22;7777;52.254;9.618;2023-08-21T05:23:16;18.80;99.90
15355;DHT22;7777;52.254;9.618;2023-08-21T05:25:43;18.80;99.90
15355;DHT22;7777;52.254;9.618;2023-08-21T05:28:09;18.80;99.90
15355;DHT22;7777;52.254;9.618;2023-08-21T05:30:38;18.90;99.90
15355;DHT22;7777;52.254;9.618;2023-08-21T05:33:04;18.90;99.90
15355;DHT22;7777;52.254;9.618;2023-08-21T05:35:34;18.90;99.90
15355;DHT22;7777;52.254;9.618;2023-08-21T05:38:02;18.90;99.90
15355;DHT22;7777;52.254;9.618;2023-08-21T05:40:28;18.90;99.90
15355;DHT22;7777;52.254;9.618;2023-08-21T05:42:54;18.90;99.90
15355;DHT22;7777;52.254;9.618;2023-08-21T05:45:20;18.90;99.90
15355;DHT22;7777;52.254;9.618;2023-08-21T05:47:46;19.00;99.90
15355;DHT22;7777;52.254;9.618;2023-08-21T05:50:12;19.00;99.90
15355;DHT22;7777;52.254;9.618;2023-08-21T05:52:37;19.00;99.90
15355;DHT22;7777;52.254;9.618;2023-08-21T05:55:04;19.00;99.90
15355;DHT22;7777;52.254;9.618;2023-08-21T05:57:30;19.00;99.90
15355;DHT22;7777;52.254;9.618;2023-08-21T05:59:56;19.10;99.90
15355;DHT22;7777;52.254;9.618;2023-08-21T06:02:22;19.10;99.90
15355;DHT22;7777;52.254;9.618;2023-08-21T06:04:48;19.10;99.90
15355;DHT22;7777;52.254;9.618;2023-08-21T06:07:14;19.20;99.90
15355;DHT22;7777;52.254;9.618;2023-08-21T06:09:40;19.20;99.90
15355;DHT22;7777;52.254;9.618;2023-08-21T06:12:06;19.20;99.90
15355;DHT22;7777;52.254;9.618;2023-08-21T06:14:32;19.30;99.90
15355;DHT22;7777;52.254;9.618;2023-08-21T06:17:00;19.30;99.90
15355;DHT22;7777;52.254;9.618;2023-08-21T06:19:27;19.40;99.90
15355;DHT22;7777;52.254;9.618;2023-08-21T06:21:55;19.40;99.90
15355;DHT22;7777;52.254;9.618;2023-08-21T06:24:21;19.50;99.90
15355;DHT22;7777;52.254;9.618;2023-08-21T06:26:47;19.50;99.90
15355;DHT22;7777;52.254;9.618;2023-08-21T06:29:13;19.60;99.90
15355;DHT22;7777;52.254;9.618;2023-08-21T06:31:39;19.60;99.90
15355;DHT22;7777;52.254;9.618;2023-08-21T06:34:05;19.70;99.90
15355;DHT22;7777;52.254;9.618;2023-08-21T06:36:31;19.70;99.90
15355;DHT22;7777;52.254;9.618;2023-08-21T06:38:56;19.80;99.90
15355;DHT22;7777;52.254;9.618;2023-08-21T06:41:22;19.80;99.90
15355;DHT22;7777;52.254;9.618;2023-08-21T06:43:48;19.90;99.90
15355;DHT22;7777;52.254;9.618;2023-08-21T06:46:14;19.90;99.90
15355;DHT22;7777;52.254;9.618;2023-08-21T06:48:40;20.00;99.90
15355;DHT22;7777;52.254;9.618;2023-08-21T06:51:09;20.10;99.90
15355;DHT22;7777;52.254;9.618;2023-08-21T06:53:35;20.10;99.90
15355;DHT22;7777;52.254;9.618;2023-08-21T06:56:01;20.20;99.90
15355;DHT22;7777;52.254;9.618;2023-08-21T06:58:27;20.30;99.90
15355;DHT22;7777;52.254;9.618;2023-08-21T07:00:54;20.30;99.90
15355;DHT22;7777;52.254;9.618;2023-08-21T07:03:21;20.40;99.90
15355;DHT22;7777;52.254;9.618;2023-08-21T07:05:56;20.40;99.90
15355;DHT22;7777;52.254;9.618;2023-08-21T07:08:23;20.50;99.90
15355;DHT22;7777;52.254;9.618;2023-08-21T07:10:49;20.50;99.90
15355;DHT22;7777;52.254;9.618;2023-08-21T07:13:15;20.60;99.90
15355;DHT22;7777;52.254;9.618;2023-08-21T07:15:41;20.60;99.90
15355;DHT22;7777;52.254;9.618;2023-08-21T07:18:07;20.60;99.90
15355;DHT22;7777;52.254;9.618;2023-08-21T07:20:33;20.70;99.90
15355;DHT22;7777;52.254;9.618;2023-08-21T07:22:59;20.70;99.90
15355;DHT22;7777;52.254;9.618;2023-08-21T07:25:25;20.70;99.90
15355;DHT22;7777;52.254;9.618;2023-08-21T07:27:52;20.80;99.90
15355;DHT22;7777;52.254;9.618;2023-08-21T07:30:21;20.80;99.90
15355;DHT22;7777;52.254;9.618;2023-08-21T07:32:48;20.90;99.90
15355;DHT22;7777;52.254;9.618;2023-08-21T07:35:15;20.90;99.90
15355;DHT22;7777;52.254;9.618;2023-08-21T07:37:44;21.00;99.90
15355;DHT22;7777;52.254;9.618;2023-08-21T07:40:11;21.00;99.90
15355;DHT22;7777;52.254;9.618;2023-08-21T07:42:37;21.10;99.90
15355;DHT22;7777;52.254;9.618;2023-08-21T07:45:03;21.20;99.90
15355;DHT22;7777;52.254;9.618;2023-08-21T07:47:30;21.20;99.90
15355;DHT22;7777;52.254;9.618;2023-08-21T07:49:56;21.20;99.90
15355;DHT22;7777;52.254;9.618;2023-08-21T07:52:23;21.30;99.90
15355;DHT22;7777;52.254;9.618;2023-08-21T07:54:54;21.30;99.90
15355;DHT22;7777;52.254;9.618;2023-08-21T07:57:20;21.40;99.90
15355;DHT22;7777;52.254;9.618;2023-08-21T07:59:46;21.40;99.90
15355;DHT22;7777;52.254;9.618;2023-08-21T08:02:11;21.40;99.90
15355;DHT22;7777;52.254;9.618;2023-08-21T08:04:38;21.50;99.90
15355;DHT22;7777;52.254;9.618;2023-08-21T08:07:04;21.50;99.90
15355;DHT22;7777;52.254;9.618;2023-08-21T08:09:30;21.50;99.90
15355;DHT22;7777;52.254;9.618;2023-08-21T08:11:56;21.60;99.90
15355;DHT22;7777;52.254;9.618;2023-08-21T08:14:22;21.60;99.90
15355;DHT22;7777;52.254;9.618;2023-08-21T08:16:47;21.70;99.90
15355;DHT22;7777;52.254;9.618;2023-08-21T08:19:13;21.70;99.90
15355;DHT22;7777;52.254;9.618;2023-08-21T08:21:39;21.80;99.90
15355;DHT22;7777;52.254;9.618;2023-08-21T08:24:05;21.80;99.90
15355;DHT22;7777;52.254;9.618;2023-08-21T08:26:30;21.90;99.90
15355;DHT22;7777;52.254;9.618;2023-08-21T08:28:56;21.90;99.90
15355;DHT22;7777;52.254;9.618;2023-08-21T08:31:22;22.00;99.90
15355;DHT22;7777;52.254;9.618;2023-08-21T08:33:49;22.00;99.90
15355;DHT22;7777;52.254;9.618;2023-08-21T08:36:15;22.00;99.90
15355;DHT22;7777;52.254;9.618;2023-08-21T08:38:41;22.10;99.90
15355;DHT22;7777;52.254;9.618;2023-08-21T08:41:11;22.20;99.90
15355;DHT22;7777;52.254;9.618;2023-08-21T08:43:40;22.20;99.90
15355;DHT22;7777;52.254;9.618;2023-08-21T08:46:08;22.20;99.90
15355;DHT22;7777;52.254;9.618;2023-08-21T08:48:35;22.20;99.90
15355;DHT22;7777;52.254;9.618;2023-08-21T08:51:03;22.20;99.90
15355;DHT22;7777;52.254;9.618;2023-08-21T08:53:31;22.30;99.90
15355;DHT22;7777;52.254;9.618;2023-08-21T08:55:58;22.30;99.90
15355;DHT22;7777;52.254;9.618;2023-08-21T08:58:24;22.30;99.90
15355;DHT22;7777;52.254;9.618;2023-08-21T09:00:50;22.40;99.90
15355;DHT22;7777;52.254;9.618;2023-08-21T09:03:16;22.40;99.90
15355;DHT22;7777;52.254;9.618;2023-08-21T09:05:41;22.40;99.90
15355;DHT22;7777;52.254;9.618;2023-08-21T09:08:13;22.50;99.90
15355;DHT22;7777;52.254;9.618;2023-08-21T09:10:41;22.50;99.90
15355;DHT22;7777;52.254;9.618;2023-08-21T09:13:15;22.50;99.90
15355;DHT22;7777;52.254;9.618;2023-08-21T09:15:44;22.50;99.90
15355;DHT22;7777;52.254;9.618;2023-08-21T09:18:12;22.60;99.90
15355;DHT22;7777;52.254;9.618;2023-08-21T09:20:40;22.60;99.90
15355;DHT22;7777;52.254;9.618;2023-08-21T09:23:07;22.60;99.90
15355;DHT22;7777;52.254;9.618;2023-08-21T09:25:40;22.70;99.90
15355;DHT22;7777;52.254;9.618;2023-08-21T09:28:07;22.70;99.90
15355;DHT22;7777;52.254;9.618;2023-08-21T09:30:53;22.80;99.90
15355;DHT22;7777;52.254;9.618;2023-08-21T09:33:21;22.90;99.90
15355;DHT22;7777;52.254;9.618;2023-08-21T09:35:49;22.90;99.90
15355;DHT22;7777;52.254;9.618;2023-08-21T09:38:17;23.00;99.90
15355;DHT22;7777;52.254;9.618;2023-08-21T09:40:51;23.00;99.90
15355;DHT22;7777;52.254;9.618;2023-08-21T09:43:17;23.10;99.90
15355;DHT22;7777;52.254;9.618;2023-08-21T09:45:47;23.20;99.90
15355;DHT22;7777;52.254;9.618;2023-08-21T09:48:22;23.30;99.90
15355;DHT22;7777;52.254;9.618;2023-08-21T09:50:55;23.40;99.90
15355;DHT22;7777;52.254;9.618;2023-08-21T09:53:22;23.40;99.90
15355;DHT22;7777;52.254;9.618;2023-08-21T09:55:53;23.50;99.90
15355;DHT22;7777;52.254;9.618;2023-08-21T09:58:20;23.60;99.90
15355;DHT22;7777;52.254;9.618;2023-08-21T10:00:48;23.60;99.90
15355;DHT22;7777;52.254;9.618;2023-08-21T10:03:19;23.60;99.90
15355;DHT22;7777;52.254;9.618;2023-08-21T10:05:47;23.70;99.90
15355;DHT22;7777;52.254;9.618;2023-08-21T10:08:16;23.80;99.90
15355;DHT22;7777;52.254;9.618;2023-08-21T10:10:45;23.80;99.90
15355;DHT22;7777;52.254;9.618;2023-08-21T10:13:11;23.90;99.90
15355;DHT22;7777;52.254;9.618;2023-08-21T10:15:38;24.00;99.90
15355;DHT22;7777;52.254;9.618;2023-08-21T10:18:21;24.10;99.90
15355;DHT22;7777;52.254;9.618;2023-08-21T10:20:52;24.10;99.90
15355;DHT22;7777;52.254;9.618;2023-08-21T10:23:29;24.20;99.90
15355;DHT22;7777;52.254;9.618;2023-08-21T10:25:57;24.30;99.90
15355;DHT22;7777;52.254;9.618;2023-08-21T10:28:24;24.40;99.90
15355;DHT22;7777;52.254;9.618;2023-08-21T10:30:50;24.50;99.90
15355;DHT22;7777;52.254;9.618;2023-08-21T10:33:16;24.60;99.90
15355;DHT22;7777;52.254;9.618;2023-08-21T10:35:44;24.70;99.90
15355;DHT22;7777;52.254;9.618;2023-08-21T10:38:14;24.80;99.90
15355;DHT22;7777;52.254;9.618;2023-08-21T10:41:17;24.90;99.90
15355;DHT22;7777;52.254;9.618;2023-08-21T10:43:51;25.00;99.90
15355;DHT22;7777;52.254;9.618;2023-08-21T10:46:17;25.10;99.90
15355;DHT22;7777;52.254;9.618;2023-08-21T10:48:43;25.10;99.90
15355;DHT22;7777;52.254;9.618;2023-08-21T10:51:09;25.20;99.90
15355;DHT22;7777;52.254;9.618;2023-08-21T10:53:35;25.30;99.90
15355;DHT22;7777;52.254;9.618;2023-08-21T10:56:02;25.40;99.90
15355;DHT22;7777;52.254;9.618;2023-08-21T10:58:33;25.50;99.90
15355;DHT22;7777;52.254;9.618;2023-08-21T11:01:09;25.50;99.90
15355;DHT22;7777;52.254;9.618;2023-08-21T11:03:38;25.60;99.90
15355;DHT22;7777;52.254;9.618;2023-08-21T11:06:07;25.70;99.90
15355;DHT22;7777;52.254;9.618;2023-08-21T11:08:34;25.80;99.90
15355;DHT22;7777;52.254;9.618;2023-08-21T11:11:05;25.80;99.90
15355;DHT22;7777;52.254;9.618;2023-08-21T11:13:31;25.90;99.90
15355;DHT22;7777;52.254;9.618;2023-08-21T11:15:58;25.90;99.90
15355;DHT22;7777;52.254;9.618;2023-08-21T11:18:32;25.90;99.90
15355;DHT22;7777;52.254;9.618;2023-08-21T11:21:09;26.00;99.90
15355;DHT22;7777;52.254;9.618;2023-08-21T11:23:37;26.00;99.90
15355;DHT22;7777;52.254;9.618;2023-08-21T11:26:09;26.00;99.90
15355;DHT22;7777;52.254;9.618;2023-08-21T11:28:36;26.00;99.90
15355;DHT22;7777;52.254;9.618;2023-08-21T11:31:02;26.10;99.90
15355;DHT22;7777;52.254;9.618;2023-08-21T11:33:28;26.10;99.90
15355;DHT22;7777;52.254;9.618;2023-08-21T11:35:55;26.10;99.90
15355;DHT22;7777;52.254;9.618;2023-08-21T11:38:24;26.10;99.90
15355;DHT22;7777;52.254;9.618;2023-08-21T11:41:01;26.10;99.90
15355;DHT22;7777;52.254;9.618;2023-08-21T11:43:37;26.20;99.90
15355;DHT22;7777;52.254;9.618;2023-08-21T11:46:05;26.30;99.90
15355;DHT22;7777;52.254;9.618;2023-08-21T11:48:32;26.30;99.90
15355;DHT22;7777;52.254;9.618;2023-08-21T11:50:58;26.40;99.90
15355;DHT22;7777;52.254;9.618;2023-08-21T11:53:40;26.40;99.90
15355;DHT22;7777;52.254;9.618;2023-08-21T11:56:14;26.40;99.90
15355;DHT22;7777;52.254;9.618;2023-08-21T11:58:43;26.50;99.90
15355;DHT22;7777;52.254;9.618;2023-08-21T12:01:17;26.50;99.90
15355;DHT22;7777;52.254;9.618;2023-08-21T12:03:44;26.40;99.90
15355;DHT22;7777;52.254;9.618;2023-08-21T12:06:11;26.50;99.90
15355;DHT22;7777;52.254;9.618;2023-08-21T12:08:41;26.50;99.90
15355;DHT22;7777;52.254;9.618;2023-08-21T12:11:07;26.50;99.90
15355;DHT22;7777;52.254;9.618;2023-08-21T12:13:33;26.60;99.90
15355;DHT22;7777;52.254;9.618;2023-08-21T12:15:59;26.70;99.90
15355;DHT22;7777;52.254;9.618;2023-08-21T12:18:25;26.70;99.90
15355;DHT22;7777;52.254;9.618;2023-08-21T12:20:51;26.70;99.90
15355;DHT22;7777;52.254;9.618;2023-08-21T12:23:16;26.70;99.90
15355;DHT22;7777;52.254;9.618;2023-08-21T12:25:42;26.80;99.90
15355;DHT22;7777;52.254;9.618;2023-08-21T12:28:08;26.80;99.90
15355;DHT22;7777;52.254;9.618;2023-08-21T12:30:34;26.90;99.90
15355;DHT22;7777;52.254;9.618;2023-08-21T12:33:00;26.90;99.90
15355;DHT22;7777;52.254;9.618;2023-08-21T12:35:25;26.90;99.90
15355;DHT22;7777;52.254;9.618;2023-08-21T12:37:57;27.00;99.90
15355;DHT22;7777;52.254;9.618;2023-08-21T12:40:23;27.00;99.90
15355;DHT22;7777;52.254;9.618;2023-08-21T12:42:49;27.00;99.90
15355;DHT22;7777;52.254;9.618;2023-08-21T12:45:16;27.10;99.90
15355;DHT22;7777;52.254;9.618;2023-08-21T12:47:42;27.10;99.90
15355;DHT22;7777;52.254;9.618;2023-08-21T12:50:08;27.20;99.90
15355;DHT22;7777;52.254;9.618;2023-08-21T12:52:34;27.20;99.90
15355;DHT22;7777;52.254;9.618;2023-08-21T12:55:00;27.20;99.90
15355;DHT22;7777;52.254;9.618;2023-08-21T12:57:29;27.20;99.90
15355;DHT22;7777;52.254;9.618;2023-08-21T12:59:55;27.20;99.90
15355;DHT22;7777;52.254;9.618;2023-08-21T13:02:20;27.20;99.90
15355;DHT22;7777;52.254;9.618;2023-08-21T13:04:48;27.20;99.90
15355;DHT22;7777;52.254;9.618;2023-08-21T13:07:14;27.10;99.90
15355;DHT22;7777;52.254;9.618;2023-08-21T13:09:40;27.10;99.90
15355;DHT22;7777;52.254;9.618;2023-08-21T13:12:06;27.10;99.90
15355;DHT22;7777;52.254;9.618;2023-08-21T13:14:33;27.00;99.90
15355;DHT22;7777;52.254;9.618;2023-08-21T13:16:59;27.00;99.90
15355;DHT22;7777;52.254;9.618;2023-08-21T13:19:25;27.00;99.90
15355;DHT22;7777;52.254;9.618;2023-08-21T13:21:51;27.00;99.90
15355;DHT22;7777;52.254;9.618;2023-08-21T13:24:17;27.10;99.90
15355;DHT22;7777;52.254;9.618;2023-08-21T13:26:42;27.10;99.90
15355;DHT22;7777;52.254;9.618;2023-08-21T13:29:09;27.10;99.90
15355;DHT22;7777;52.254;9.618;2023-08-21T13:31:34;27.20;99.90
15355;DHT22;7777;52.254;9.618;2023-08-21T13:34:00;27.20;99.90
15355;DHT22;7777;52.254;9.618;2023-08-21T13:36:26;27.20;99.90
15355;DHT22;7777;52.254;9.618;2023-08-21T13:38:52;27.20;99.90
15355;DHT22;7777;52.254;9.618;2023-08-21T13:41:18;27.10;99.90
15355;DHT22;7777;52.254;9.618;2023-08-21T13:43:44;27.10;99.90
15355;DHT22;7777;52.254;9.618;2023-08-21T13:46:10;27.10;99.90
15355;DHT22;7777;52.254;9.618;2023-08-21T13:48:35;27.10;99.90
15355;DHT22;7777;52.254;9.618;2023-08-21T13:51:01;27.10;99.90
15355;DHT22;7777;52.254;9.618;2023-08-21T13:53:27;27.00;99.90
15355;DHT22;7777;52.254;9.618;2023-08-21T13:55:53;27.00;99.90
15355;DHT22;7777;52.254;9.618;2023-08-21T13:58:18;27.00;99.90
15355;DHT22;7777;52.254;9.618;2023-08-21T14:00:44;27.00;99.90
15355;DHT22;7777;52.254;9.618;2023-08-21T14:03:10;27.00;99.90
15355;DHT22;7777;52.254;9.618;2023-08-21T14:05:36;26.90;99.90
15355;DHT22;7777;52.254;9.618;2023-08-21T14:08:02;26.90;99.90
15355;DHT22;7777;52.254;9.618;2023-08-21T14:10:29;26.90;99.90
15355;DHT22;7777;52.254;9.618;2023-08-21T14:12:56;26.90;99.90
15355;DHT22;7777;52.254;9.618;2023-08-21T14:15:22;26.90;99.90
15355;DHT22;7777;52.254;9.618;2023-08-21T14:17:48;26.90;99.90
15355;DHT22;7777;52.254;9.618;2023-08-21T14:20:15;26.90;99.90
15355;DHT22;7777;52.254;9.618;2023-08-21T14:22:41;26.90;99.90
15355;DHT22;7777;52.254;9.618;2023-08-21T14:25:07;26.90;99.90
15355;DHT22;7777;52.254;9.618;2023-08-21T14:27:33;26.90;99.90
15355;DHT22;7777;52.254;9.618;2023-08-21T14:29:59;26.90;99.90
15355;DHT22;7777;52.254;9.618;2023-08-21T14:32:25;26.90;99.90
15355;DHT22;7777;52.254;9.618;2023-08-21T14:37:20;26.90;99.90
15355;DHT22;7777;52.254;9.618;2023-08-21T14:39:46;26.90;99.90
15355;DHT22;7777;52.254;9.618;2023-08-21T14:42:12;26.90;99.90
15355;DHT22;7777;52.254;9.618;2023-08-21T14:44:38;26.90;99.90
15355;DHT22;7777;52.254;9.618;2023-08-21T14:47:04;26.90;99.90
15355;DHT22;7777;52.254;9.618;2023-08-21T14:49:30;26.80;99.90
15355;DHT22;7777;52.254;9.618;2023-08-21T14:51:56;26.80;99.90
15355;DHT22;7777;52.254;9.618;2023-08-21T14:54:21;26.80;99.90
15355;DHT22;7777;52.254;9.618;2023-08-21T14:56:47;26.80;99.90
15355;DHT22;7777;52.254;9.618;2023-08-21T14:59:14;26.70;99.90
15355;DHT22;7777;52.254;9.618;2023-08-21T15:01:40;26.80;99.90
15355;DHT22;7777;52.254;9.618;2023-08-21T15:04:07;26.70;99.90
15355;DHT22;7777;52.254;9.618;2023-08-21T15:06:34;26.70;99.90
15355;DHT22;7777;52.254;9.618;2023-08-21T15:09:00;26.70;99.90
15355;DHT22;7777;52.254;9.618;2023-08-21T15:11:26;26.60;99.90
15355;DHT22;7777;52.254;9.618;2023-08-21T15:13:52;26.60;99.50
15355;DHT22;7777;52.254;9.618;2023-08-21T15:16:18;26.60;99.80
15355;DHT22;7777;52.254;9.618;2023-08-21T15:18:44;26.50;99.60
15355;DHT22;7777;52.254;9.618;2023-08-21T15:21:11;26.50;99.60
15355;DHT22;7777;52.254;9.618;2023-08-21T15:23:37;26.40;99.60
15355;DHT22;7777;52.254;9.618;2023-08-21T15:26:03;26.40;99.50
15355;DHT22;7777;52.254;9.618;2023-08-21T15:28:28;26.40;99.50
15355;DHT22;7777;52.254;9.618;2023-08-21T15:30:54;26.30;99.60
15355;DHT22;7777;52.254;9.618;2023-08-21T15:33:20;26.30;99.50
15355;DHT22;7777;52.254;9.618;2023-08-21T15:35:46;26.30;99.60
15355;DHT22;7777;52.254;9.618;2023-08-21T15:38:12;26.30;99.60
15355;DHT22;7777;52.254;9.618;2023-08-21T15:40:37;26.30;99.50
15355;DHT22;7777;52.254;9.618;2023-08-21T15:43:04;26.20;99.50
15355;DHT22;7777;52.254;9.618;2023-08-21T15:45:32;26.20;99.60
15355;DHT22;7777;52.254;9.618;2023-08-21T15:47:58;26.20;99.60